Time;durP1;ratioP1;P1;durP2;ratioP2;P2;SDS_P1;SDS_P2;PMS_P1;PMS_P2;Temp;Humidity;BMP_temperature;BMP_pressure;BME280_temperature;BME280_humidity;BME280_pressure;Samples;Min_cycle;Max_cycle;Signal;HPM_P1;HPM_P2
2021/07/31 00:01:09;;;;;;;5.90;3.28;;;25.10;61.30;;;;;;5058279;28;20325;-75
2021/07/31 00:03:37;;;;;;;6.32;2.58;;;25.10;60.90;;;;;;5025779;28;20211;-76
2021/07/31 00:06:06;;;;;;;9.23;3.28;;;25.10;60.90;;;;;;5026253;28;20175;-76
2021/07/31 00:08:34;;;;;;;11.68;3.20;;;25.10;60.90;;;;;;5059810;28;20196;-76
2021/07/31 00:11:00;;;;;;;5.30;2.80;;;25.10;61.30;;;;;;5041527;28;20682;-76
2021/07/31 00:13:28;;;;;;;7.82;3.08;;;25.10;60.60;;;;;;5025087;28;20286;-76
2021/07/31 00:15:54;;;;;;;8.77;3.08;;;25.10;61.30;;;;;;5021576;28;20978;-76
2021/07/31 00:18:21;;;;;;;7.68;2.70;;;25.10;60.50;;;;;;5025895;28;20179;-76
2021/07/31 00:20:47;;;;;;;2.83;2.55;;;25.10;61.50;;;;;;5026763;28;20564;-76
2021/07/31 00:23:14;;;;;;;8.52;2.92;;;25.00;61.80;;;;;;5036958;28;20314;-77
2021/07/31 00:25:41;;;;;;;4.90;2.65;;;25.10;61.90;;;;;;5047286;28;20183;-77
2021/07/31 00:28:08;;;;;;;5.35;2.97;;;25.00;61.40;;;;;;5030291;28;20182;-76
2021/07/31 00:30:34;;;;;;;5.28;2.83;;;25.10;61.70;;;;;;5027839;28;20176;-76
2021/07/31 00:33:01;;;;;;;8.50;2.85;;;25.10;62.10;;;;;;5024737;28;20266;-76
2021/07/31 00:35:27;;;;;;;4.47;2.88;;;25.10;61.90;;;;;;5044406;28;20188;-76
2021/07/31 00:37:53;;;;;;;6.13;2.67;;;25.00;61.50;;;;;;5046116;28;20299;-76
2021/07/31 00:40:20;;;;;;;5.90;2.50;;;25.00;61.60;;;;;;5046426;28;20242;-76
2021/07/31 00:42:46;;;;;;;7.20;2.92;;;25.00;61.30;;;;;;5062646;28;20204;-76
2021/07/31 00:45:13;;;;;;;5.82;2.78;;;25.10;60.90;;;;;;5031242;28;20179;-76
2021/07/31 00:47:42;;;;;;;5.78;3.00;;;25.00;60.90;;;;;;5058924;28;20533;-76
2021/07/31 00:50:09;;;;;;;6.07;2.90;;;25.00;60.50;;;;;;5043770;28;20192;-76
2021/07/31 00:52:39;;;;;;;4.25;2.63;;;25.00;60.50;;;;;;5043878;28;20746;-76
2021/07/31 00:55:15;;;;;;;6.53;2.72;;;25.00;60.70;;;;;;5039071;28;20250;-75
2021/07/31 00:57:47;;;;;;;9.88;2.75;;;25.00;60.90;;;;;;5040064;28;20295;-76
2021/07/31 01:00:14;;;;;;;4.73;2.60;;;25.00;61.10;;;;;;5045921;28;20184;-75
2021/07/31 01:02:40;;;;;;;6.05;2.70;;;25.00;61.20;;;;;;5043373;28;20803;-76
2021/07/31 01:05:09;;;;;;;6.30;2.70;;;25.10;60.90;;;;;;5041627;28;20194;-75
2021/07/31 01:07:38;;;;;;;4.45;2.42;;;25.10;60.00;;;;;;5043136;28;20187;-76
2021/07/31 01:10:05;;;;;;;5.18;2.75;;;25.10;60.40;;;;;;5048086;28;20218;-77
2021/07/31 01:12:35;;;;;;;5.13;2.63;;;25.20;61.30;;;;;;5044719;28;20188;-76
2021/07/31 01:15:02;;;;;;;5.75;3.05;;;25.20;60.50;;;;;;5044375;28;20191;-76
2021/07/31 01:17:32;;;;;;;4.15;2.70;;;25.20;60.70;;;;;;5045291;28;20274;-76
2021/07/31 01:19:58;;;;;;;4.28;2.50;;;25.20;60.50;;;;;;5058344;28;20191;-76
2021/07/31 01:22:27;;;;;;;4.95;2.35;;;25.30;61.30;;;;;;5043850;28;20211;-76
2021/07/31 01:24:54;;;;;;;7.73;2.60;;;25.30;60.50;;;;;;5025832;28;20218;-76
2021/07/31 01:27:22;;;;;;;9.68;3.38;;;25.40;60.00;;;;;;5041536;28;20308;-75
2021/07/31 01:29:49;;;;;;;6.20;2.80;;;25.40;60.00;;;;;;5058329;28;20183;-76
2021/07/31 01:32:15;;;;;;;5.88;2.50;;;25.50;61.30;;;;;;5046022;28;20172;-76
2021/07/31 01:34:41;;;;;;;4.10;2.50;;;25.50;60.40;;;;;;5042933;28;20192;-76
2021/07/31 01:37:07;;;;;;;8.40;2.65;;;25.50;60.30;;;;;;5028980;28;20186;-76
2021/07/31 01:39:34;;;;;;;4.30;2.60;;;25.50;59.40;;;;;;5041796;28;20233;-76
2021/07/31 01:42:00;;;;;;;9.73;2.50;;;25.50;59.60;;;;;;5044636;28;20858;-75
2021/07/31 01:44:27;;;;;;;5.28;2.50;;;25.50;58.80;;;;;;5037990;28;20700;-76
2021/07/31 01:46:53;;;;;;;5.80;2.75;;;25.50;58.90;;;;;;5045277;28;20270;-76
2021/07/31 01:49:20;;;;;;;6.97;2.65;;;25.50;58.40;;;;;;5051833;28;20198;-76
2021/07/31 01:51:46;;;;;;;5.00;2.38;;;25.50;58.80;;;;;;5043746;28;20198;-76
2021/07/31 01:54:13;;;;;;;4.55;2.42;;;25.50;57.90;;;;;;5046412;28;20191;-76
2021/07/31 01:56:41;;;;;;;8.48;2.60;;;25.50;58.60;;;;;;5047694;28;20199;-76
2021/07/31 01:59:08;;;;;;;5.15;2.40;;;25.40;58.40;;;;;;5046586;28;20203;-75
2021/07/31 02:01:34;;;;;;;5.68;2.97;;;25.40;58.20;;;;;;5044324;28;20271;-76
2021/07/31 02:04:01;;;;;;;6.85;2.75;;;25.40;58.00;;;;;;5046715;28;20212;-75
2021/07/31 02:06:27;;;;;;;7.80;2.83;;;25.50;58.50;;;;;;5043487;28;20184;-75
2021/07/31 02:08:54;;;;;;;5.78;3.40;;;25.50;57.90;;;;;;5049518;28;21589;-76
2021/07/31 02:11:20;;;;;;;6.35;3.20;;;25.50;59.10;;;;;;5058132;28;20895;-76
2021/07/31 02:13:46;;;;;;;3.53;2.38;;;25.50;58.20;;;;;;5045773;28;20197;-75
2021/07/31 02:16:25;;;;;;;9.88;3.38;;;25.50;57.70;;;;;;5062369;28;20190;-75
2021/07/31 02:18:53;;;;;;;8.45;3.10;;;25.50;58.20;;;;;;5029992;28;20222;-75
2021/07/31 02:21:21;;;;;;;4.63;2.80;;;25.50;57.90;;;;;;5029887;28;20249;-75
2021/07/31 02:23:47;;;;;;;5.07;3.00;;;25.50;58.90;;;;;;5044630;28;20286;-75
2021/07/31 02:26:14;;;;;;;3.67;3.00;;;25.40;58.10;;;;;;5043047;28;20191;-75
2021/07/31 02:28:40;;;;;;;5.18;2.95;;;25.40;57.80;;;;;;5045372;28;20175;-76
2021/07/31 02:31:06;;;;;;;5.97;3.05;;;25.40;58.40;;;;;;5046471;28;20190;-75
2021/07/31 02:33:33;;;;;;;4.25;2.80;;;25.40;58.60;;;;;;5026769;28;20250;-76
2021/07/31 02:36:05;;;;;;;3.85;2.78;;;25.30;58.20;;;;;;5043446;28;20644;-76
2021/07/31 02:38:32;;;;;;;7.75;3.00;;;25.30;58.30;;;;;;5061036;28;20217;-75
2021/07/31 02:40:59;;;;;;;5.32;3.03;;;25.30;58.40;;;;;;5042397;28;20648;-76
2021/07/31 02:43:25;;;;;;;4.72;3.00;;;25.30;58.00;;;;;;5044413;28;20200;-75
2021/07/31 02:45:51;;;;;;;3.75;2.85;;;25.20;58.30;;;;;;5044537;28;20879;-75
2021/07/31 02:48:17;;;;;;;4.72;3.10;;;25.20;57.90;;;;;;5044167;28;20248;-75
2021/07/31 02:50:44;;;;;;;6.03;2.97;;;25.10;57.80;;;;;;5044887;28;20180;-75
2021/07/31 02:53:10;;;;;;;5.97;2.90;;;25.10;57.80;;;;;;5045463;28;20195;-75
2021/07/31 02:55:36;;;;;;;6.38;3.03;;;25.10;58.20;;;;;;5044140;28;20246;-76
2021/07/31 02:58:03;;;;;;;9.20;3.33;;;25.10;58.60;;;;;;5026186;28;20202;-75
2021/07/31 03:00:32;;;;;;;3.72;2.75;;;25.10;57.90;;;;;;5059445;28;20648;-76
2021/07/31 03:02:59;;;;;;;9.17;3.53;;;25.10;57.90;;;;;;5058162;28;20405;-76
2021/07/31 03:05:27;;;;;;;4.15;3.05;;;25.00;57.50;;;;;;5045474;28;20184;-75
2021/07/31 03:07:53;;;;;;;4.68;3.22;;;25.00;58.00;;;;;;5028502;28;20195;-76
2021/07/31 03:10:19;;;;;;;6.28;3.20;;;25.00;58.20;;;;;;5045896;28;20188;-76
2021/07/31 03:12:46;;;;;;;7.63;3.20;;;25.10;59.00;;;;;;5026861;28;20202;-76
2021/07/31 03:15:12;;;;;;;9.27;3.40;;;25.00;58.90;;;;;;5042434;28;20278;-76
2021/07/31 03:17:38;;;;;;;7.28;3.05;;;24.90;58.80;;;;;;5043832;28;20250;-75
2021/07/31 03:20:05;;;;;;;5.45;3.20;;;24.90;58.60;;;;;;5046716;28;20656;-76
2021/07/31 03:22:31;;;;;;;3.92;3.10;;;24.90;59.20;;;;;;5043993;28;20223;-76
2021/07/31 03:24:59;;;;;;;6.88;3.53;;;24.90;59.20;;;;;;5040717;28;20187;-76
2021/07/31 03:27:26;;;;;;;9.52;3.63;;;24.90;59.40;;;;;;5044821;28;20187;-76
2021/07/31 03:29:53;;;;;;;5.15;2.90;;;24.90;59.70;;;;;;5043656;28;20190;-75
2021/07/31 03:32:19;;;;;;;10.03;3.47;;;24.90;60.00;;;;;;5038035;28;20632;-76
2021/07/31 03:34:47;;;;;;;7.03;3.07;;;24.90;59.70;;;;;;5041122;28;20195;-76
2021/07/31 03:37:13;;;;;;;6.13;3.20;;;24.90;59.90;;;;;;5044317;28;20210;-75
2021/07/31 03:39:39;;;;;;;6.33;3.40;;;24.80;60.30;;;;;;5045200;28;20187;-75
2021/07/31 03:42:08;;;;;;;6.70;3.72;;;24.90;60.30;;;;;;5042943;28;20188;-76
2021/07/31 03:44:34;;;;;;;4.50;3.30;;;24.90;60.70;;;;;;5043507;28;20186;-75
2021/07/31 03:47:00;;;;;;;11.93;3.50;;;24.90;60.50;;;;;;5046533;28;20694;-75
2021/07/31 03:49:26;;;;;;;6.75;3.30;;;24.90;60.60;;;;;;5027803;28;20257;-75
2021/07/31 03:51:54;;;;;;;5.78;3.60;;;24.90;60.80;;;;;;5044315;28;20211;-76
2021/07/31 03:54:21;;;;;;;8.00;3.63;;;24.90;60.90;;;;;;5044267;28;20187;-75
2021/07/31 03:56:47;;;;;;;5.78;3.50;;;24.90;61.00;;;;;;5046707;28;20202;-75
2021/07/31 03:59:13;;;;;;;8.80;3.13;;;24.90;61.20;;;;;;5059764;28;20194;-75
2021/07/31 04:01:40;;;;;;;16.05;3.80;;;24.90;61.40;;;;;;5058701;28;21093;-76
2021/07/31 04:04:06;;;;;;;12.50;3.65;;;24.90;61.60;;;;;;5024344;28;20215;-75
2021/07/31 04:06:32;;;;;;;5.00;3.30;;;25.00;61.80;;;;;;5028233;28;20229;-76
2021/07/31 04:08:59;;;;;;;5.60;3.55;;;25.00;62.20;;;;;;5041479;28;20187;-76
2021/07/31 04:11:26;;;;;;;5.95;3.80;;;25.00;62.00;;;;;;5036954;28;20325;-75
2021/07/31 04:13:54;;;;;;;8.63;3.58;;;25.00;62.30;;;;;;5056002;28;20282;-76
2021/07/31 04:16:21;;;;;;;10.05;3.95;;;25.00;62.20;;;;;;5042645;28;20230;-76
2021/07/31 04:18:48;;;;;;;6.97;4.00;;;25.10;62.50;;;;;;5027288;28;20225;-76
2021/07/31 04:21:14;;;;;;;5.25;3.67;;;25.10;62.90;;;;;;5058922;28;20223;-75
2021/07/31 04:23:41;;;;;;;6.20;3.85;;;25.00;62.80;;;;;;5024815;28;20208;-75
2021/07/31 04:26:15;;;;;;;8.07;3.90;;;25.10;62.90;;;;;;5023973;28;20183;-75
2021/07/31 04:28:44;;;;;;;6.57;3.67;;;25.10;63.20;;;;;;5041756;28;20298;-76
2021/07/31 04:31:13;;;;;;;7.63;4.35;;;25.10;63.90;;;;;;5041901;28;20262;-75
2021/07/31 04:33:41;;;;;;;10.45;3.97;;;25.20;64.50;;;;;;5048063;28;20274;-76
2021/07/31 04:36:09;;;;;;;6.57;3.90;;;25.20;65.40;;;;;;5044230;28;20191;-75
2021/07/31 04:38:37;;;;;;;5.93;3.75;;;25.30;65.80;;;;;;5026636;28;20196;-75
2021/07/31 04:41:04;;;;;;;7.60;3.92;;;25.30;66.00;;;;;;5027667;28;20233;-75
2021/07/31 04:43:34;;;;;;;4.97;3.53;;;25.30;66.40;;;;;;5038781;28;20759;-77
2021/07/31 04:46:01;;;;;;;6.43;4.10;;;25.40;66.40;;;;;;5042807;28;21105;-76
2021/07/31 04:48:28;;;;;;;9.18;3.47;;;25.40;67.30;;;;;;5057528;28;20188;-76
2021/07/31 04:51:01;;;;;;;7.28;3.70;;;25.40;67.70;;;;;;5046181;28;20188;-76
2021/07/31 04:53:29;;;;;;;9.30;4.20;;;25.50;68.00;;;;;;5044469;28;20270;-76
2021/07/31 04:55:56;;;;;;;9.48;4.15;;;25.50;68.50;;;;;;5028066;28;20207;-75
2021/07/31 04:58:24;;;;;;;5.15;4.03;;;25.60;68.30;;;;;;5042010;28;20195;-76
2021/07/31 05:00:54;;;;;;;6.78;4.05;;;25.60;68.30;;;;;;5043043;28;20203;-75
2021/07/31 05:03:22;;;;;;;5.43;4.07;;;25.60;68.70;;;;;;5024453;28;20212;-75
2021/07/31 05:05:48;;;;;;;7.20;4.28;;;25.70;68.40;;;;;;5041034;28;20183;-76
2021/07/31 05:08:15;;;;;;;7.25;4.75;;;25.70;68.40;;;;;;5043360;28;20184;-76
2021/07/31 05:10:42;;;;;;;7.75;4.50;;;25.70;68.60;;;;;;5063710;28;20179;-75
2021/07/31 05:13:12;;;;;;;7.45;4.95;;;25.80;67.40;;;;;;5045922;28;20199;-75
2021/07/31 05:15:40;;;;;;;11.23;4.50;;;25.90;67.50;;;;;;5027308;28;20184;-76
2021/07/31 05:18:08;;;;;;;5.07;4.28;;;25.90;68.60;;;;;;5044244;28;20198;-75
2021/07/31 05:20:40;;;;;;;6.10;4.35;;;25.90;67.90;;;;;;5048281;28;20538;-76
2021/07/31 05:23:07;;;;;;;6.90;4.90;;;26.00;67.10;;;;;;5046292;28;20715;-75
2021/07/31 05:25:36;;;;;;;6.88;4.65;;;26.00;67.30;;;;;;5044506;28;20192;-76
2021/07/31 05:28:02;;;;;;;7.18;4.78;;;26.00;66.40;;;;;;5028262;28;20183;-75
2021/07/31 05:30:29;;;;;;;6.22;4.50;;;26.10;65.50;;;;;;5030792;28;20230;-77
2021/07/31 05:32:55;;;;;;;7.88;5.15;;;26.10;67.80;;;;;;5027889;28;20188;-75
2021/07/31 05:35:22;;;;;;;7.05;5.00;;;26.20;65.70;;;;;;5028302;28;20191;-76
2021/07/31 05:37:48;;;;;;;6.93;4.70;;;26.20;64.40;;;;;;5023914;28;20507;-76
2021/07/31 05:40:14;;;;;;;6.60;4.60;;;26.20;65.10;;;;;;5052205;28;20195;-76
2021/07/31 05:42:41;;;;;;;8.38;4.75;;;26.30;65.80;;;;;;5060321;28;20237;-75
2021/07/31 05:45:09;;;;;;;11.93;5.03;;;26.30;66.60;;;;;;5045572;28;20765;-76
2021/07/31 05:47:36;;;;;;;8.27;4.82;;;26.40;65.60;;;;;;5058946;28;20190;-75
2021/07/31 05:50:07;;;;;;;7.40;4.50;;;26.40;66.10;;;;;;5045676;28;20179;-75
2021/07/31 05:52:38;;;;;;;5.95;4.45;;;26.40;66.40;;;;;;5060531;28;20192;-75
2021/07/31 05:55:08;;;;;;;5.85;4.57;;;26.50;65.90;;;;;;5045964;28;20187;-76
2021/07/31 05:57:35;;;;;;;11.05;4.80;;;26.50;65.60;;;;;;5029711;28;20190;-75
2021/07/31 06:00:01;;;;;;;11.95;5.05;;;26.50;64.60;;;;;;5045014;28;20201;-75
2021/07/31 06:02:28;;;;;;;8.68;5.00;;;26.60;64.60;;;;;;5045262;28;20249;-75
2021/07/31 06:04:54;;;;;;;7.10;5.07;;;26.70;65.10;;;;;;5044486;28;20179;-76
2021/07/31 06:07:20;;;;;;;8.75;5.07;;;26.70;65.00;;;;;;5045491;28;20202;-75
2021/07/31 06:09:51;;;;;;;7.65;5.28;;;26.80;64.20;;;;;;5044103;28;20314;-75
2021/07/31 06:12:18;;;;;;;5.57;4.97;;;26.90;64.60;;;;;;5045826;28;20660;-76
2021/07/31 06:14:45;;;;;;;6.50;5.03;;;26.90;65.50;;;;;;5044407;28;20180;-75
2021/07/31 06:17:13;;;;;;;10.38;5.40;;;27.00;64.40;;;;;;5043376;28;20218;-76
2021/07/31 06:19:40;;;;;;;12.00;5.03;;;27.30;64.60;;;;;;5043154;28;20265;-75
2021/07/31 06:22:06;;;;;;;9.60;5.25;;;27.70;59.50;;;;;;5044911;28;20249;-76
2021/07/31 06:24:33;;;;;;;13.38;5.18;;;28.10;58.60;;;;;;5027693;28;20200;-76
2021/07/31 06:27:00;;;;;;;7.72;5.38;;;28.40;58.20;;;;;;5045581;28;20180;-75
2021/07/31 06:29:26;;;;;;;10.35;5.00;;;28.80;56.90;;;;;;5026104;28;20254;-76
2021/07/31 06:31:53;;;;;;;9.65;5.63;;;29.00;56.40;;;;;;5045663;28;20179;-75
2021/07/31 06:34:20;;;;;;;6.13;4.47;;;29.10;58.90;;;;;;5027348;28;20646;-76
2021/07/31 06:36:46;;;;;;;11.50;4.95;;;28.70;61.50;;;;;;5028755;28;20560;-75
2021/07/31 06:39:13;;;;;;;10.32;4.60;;;28.60;60.40;;;;;;5028990;28;20183;-76
2021/07/31 06:41:39;;;;;;;10.88;4.53;;;28.80;58.60;;;;;;5045763;28;20291;-76
2021/07/31 06:44:06;;;;;;;14.25;4.88;;;29.20;58.70;;;;;;5040986;28;20206;-76
2021/07/31 06:46:32;;;;;;;12.23;4.72;;;29.40;59.00;;;;;;5044907;28;20557;-76
2021/07/31 06:49:03;;;;;;;11.60;4.47;;;29.60;59.40;;;;;;5041740;28;20188;-76
2021/07/31 06:51:30;;;;;;;11.75;4.97;;;29.70;60.10;;;;;;5048725;28;20634;-76
2021/07/31 06:54:01;;;;;;;9.20;4.22;;;29.60;59.60;;;;;;5045530;28;20248;-76
2021/07/31 06:56:28;;;;;;;16.58;4.68;;;29.80;59.90;;;;;;5042879;28;20194;-76
2021/07/31 06:58:55;;;;;;;5.93;4.28;;;29.50;61.30;;;;;;5041979;28;20191;-76
2021/07/31 07:01:21;;;;;;;9.63;4.45;;;29.60;59.20;;;;;;5028783;28;20188;-76
2021/07/31 07:03:50;;;;;;;15.45;4.45;;;29.80;59.90;;;;;;5039093;28;20267;-75
2021/07/31 07:06:17;;;;;;;8.40;4.32;;;29.80;61.20;;;;;;5059666;28;20955;-76
2021/07/31 07:08:44;;;;;;;9.75;4.93;;;30.00;61.10;;;;;;5026806;28;20629;-75
2021/07/31 07:11:16;;;;;;;7.65;4.40;;;30.20;61.20;;;;;;5042320;28;20218;-76
2021/07/31 07:13:46;;;;;;;12.90;4.93;;;30.20;60.30;;;;;;5024597;28;20184;-75
2021/07/31 07:16:13;;;;;;;8.05;4.65;;;30.30;60.70;;;;;;5045908;28;20179;-75
2021/07/31 07:18:40;;;;;;;8.20;4.45;;;30.20;60.10;;;;;;5044446;28;20180;-75
2021/07/31 07:21:09;;;;;;;8.57;4.57;;;30.30;61.10;;;;;;5040729;28;20277;-75
2021/07/31 07:23:36;;;;;;;9.77;4.53;;;30.40;61.20;;;;;;5039245;28;20731;-76
2021/07/31 07:26:07;;;;;;;9.38;5.00;;;30.50;60.20;;;;;;5043268;28;20656;-75
2021/07/31 07:28:34;;;;;;;8.27;4.75;;;30.40;61.70;;;;;;5025460;28;20176;-75
2021/07/31 07:31:00;;;;;;;7.75;4.60;;;30.50;61.30;;;;;;5024387;28;22356;-75
2021/07/31 07:33:26;;;;;;;11.15;4.57;;;30.60;62.80;;;;;;5043084;28;20261;-75
2021/07/31 07:35:53;;;;;;;9.77;4.65;;;30.70;65.80;;;;;;5043040;28;20187;-75
2021/07/31 07:38:19;;;;;;;7.75;4.25;;;30.70;67.10;;;;;;5045677;28;20195;-76
2021/07/31 07:40:46;;;;;;;10.20;4.50;;;30.70;70.90;;;;;;5060004;28;20186;-75
2021/07/31 07:43:13;;;;;;;8.45;4.47;;;30.80;71.30;;;;;;5057725;28;20643;-75
2021/07/31 07:45:39;;;;;;;10.80;4.22;;;30.90;71.30;;;;;;5043933;28;20223;-75
2021/07/31 07:48:07;;;;;;;11.32;4.50;;;31.00;71.30;;;;;;5027312;28;20729;-76
2021/07/31 07:50:34;;;;;;;12.02;4.13;;;31.10;70.80;;;;;;5027950;28;20728;-75
2021/07/31 07:53:01;;;;;;;8.45;4.72;;;31.10;72.20;;;;;;5043285;28;20375;-75
2021/07/31 07:55:28;;;;;;;10.98;4.25;;;31.20;72.50;;;;;;5042012;28;20266;-76
2021/07/31 07:57:56;;;;;;;10.50;4.15;;;31.20;70.60;;;;;;5046482;28;20184;-76
2021/07/31 08:00:22;;;;;;;6.22;4.47;;;31.30;70.20;;;;;;5042443;28;20229;-76
2021/07/31 08:02:49;;;;;;;10.23;4.38;;;31.30;71.40;;;;;;5045066;28;20218;-73
2021/07/31 08:05:16;;;;;;;7.07;4.60;;;31.30;71.20;;;;;;5044943;28;20187;-73
2021/07/31 08:07:45;;;;;;;15.18;5.00;;;31.40;70.70;;;;;;5043769;28;20222;-73
2021/07/31 08:10:12;;;;;;;10.55;4.03;;;31.40;69.80;;;;;;5044661;28;20181;-73
2021/07/31 08:12:39;;;;;;;8.07;3.45;;;31.30;71.40;;;;;;5043057;28;20201;-73
2021/07/31 08:15:07;;;;;;;9.35;4.13;;;31.20;74.50;;;;;;5039493;28;20207;-73
2021/07/31 08:17:35;;;;;;;9.02;4.07;;;31.40;73.70;;;;;;5044922;28;20221;-76
2021/07/31 08:20:07;;;;;;;7.03;3.85;;;31.50;75.50;;;;;;5044954;28;20552;-73
2021/07/31 08:22:37;;;;;;;9.65;4.15;;;31.60;75.10;;;;;;5058980;28;20329;-73
2021/07/31 08:25:04;;;;;;;6.85;4.25;;;31.50;72.90;;;;;;5032809;28;20187;-75
2021/07/31 08:27:31;;;;;;;12.15;3.95;;;31.60;73.90;;;;;;5041434;28;20194;-75
2021/07/31 08:29:59;;;;;;;10.70;4.20;;;31.60;72.50;;;;;;5042309;28;20194;-73
2021/07/31 08:32:32;;;;;;;11.38;4.00;;;31.60;71.30;;;;;;5026546;28;20233;-73
2021/07/31 08:35:00;;;;;;;17.02;4.90;;;31.70;73.30;;;;;;5042006;28;20553;-74
2021/07/31 08:37:27;;;;;;;7.18;3.85;;;31.80;69.70;;;;;;5048141;28;20187;-75
2021/07/31 08:39:56;;;;;;;9.50;4.32;;;31.90;70.10;;;;;;5044546;28;20184;-75
2021/07/31 08:42:23;;;;;;;11.10;4.20;;;31.80;64.60;;;;;;5042420;28;20552;-74
2021/07/31 08:44:52;;;;;;;7.35;4.30;;;31.90;69.60;;;;;;5044507;28;20186;-76
2021/07/31 08:47:23;;;;;;;12.02;4.50;;;32.00;69.40;;;;;;5030130;28;20207;-75
2021/07/31 08:49:53;;;;;;;11.63;4.13;;;32.10;67.80;;;;;;5047407;28;20671;-75
2021/07/31 08:52:27;;;;;;;8.27;3.97;;;32.20;67.20;;;;;;5030739;28;20975;-73
2021/07/31 08:54:59;;;;;;;10.43;4.30;;;32.20;68.40;;;;;;5030303;28;20727;-75
2021/07/31 08:57:28;;;;;;;13.65;4.50;;;32.30;68.40;;;;;;5032811;28;20307;-73
2021/07/31 08:59:55;;;;;;;13.05;4.45;;;32.40;67.40;;;;;;5026639;28;20279;-73
2021/07/31 09:02:22;;;;;;;11.88;4.20;;;32.50;67.20;;;;;;5045389;28;20198;-73
2021/07/31 09:04:51;;;;;;;8.60;4.35;;;32.50;67.70;;;;;;5044274;28;20175;-76
2021/07/31 09:07:18;;;;;;;10.07;4.00;;;32.50;68.00;;;;;;5047959;28;20191;-73
2021/07/31 09:09:47;;;;;;;6.18;3.63;;;32.50;67.00;;;;;;5047830;28;20184;-72
2021/07/31 09:12:14;;;;;;;8.18;4.03;;;32.50;66.30;;;;;;5062726;28;20711;-72
2021/07/31 09:14:47;;;;;;;9.05;4.30;;;32.70;66.40;;;;;;5029780;28;20199;-73
2021/07/31 09:17:26;;;;;;;10.35;4.43;;;32.60;67.10;;;;;;5044790;28;20179;-74
2021/07/31 09:19:56;;;;;;;8.45;4.20;;;32.70;68.10;;;;;;5045479;28;20207;-73
2021/07/31 09:22:25;;;;;;;13.00;4.40;;;32.80;68.20;;;;;;5030243;28;20191;-73
2021/07/31 09:25:23;;;;;;;11.77;4.72;;;32.80;67.60;;;;;;5041086;28;20192;-74
2021/07/31 09:27:49;;;;;;;17.55;4.47;;;32.90;68.60;;;;;;5041423;28;20187;-73
2021/07/31 09:30:16;;;;;;;13.98;4.97;;;32.90;67.50;;;;;;5046093;28;20191;-76
2021/07/31 09:32:45;;;;;;;8.60;4.22;;;32.80;68.30;;;;;;5042087;28;20658;-76
2021/07/31 09:35:25;;;;;;;10.25;4.15;;;32.90;69.00;;;;;;5050651;28;20195;-74
2021/07/31 09:37:55;;;;;;;9.55;4.68;;;33.00;69.30;;;;;;5048067;28;20298;-74
2021/07/31 09:40:31;;;;;;;10.65;4.43;;;33.10;68.40;;;;;;5044776;28;20518;-74
2021/07/31 09:43:18;;;;;;;12.40;4.10;;;33.30;67.80;;;;;;5061887;28;20273;-74
2021/07/31 09:45:48;;;;;;;8.07;4.50;;;33.40;68.80;;;;;;5044766;28;20311;-76
2021/07/31 09:48:16;;;;;;;6.68;4.10;;;33.30;68.40;;;;;;5044674;28;20176;-76
2021/07/31 09:50:48;;;;;;;10.65;4.38;;;33.50;67.60;;;;;;5046674;28;20191;-76
2021/07/31 09:53:21;;;;;;;9.25;4.25;;;33.50;67.50;;;;;;5046295;28;20721;-76
2021/07/31 09:55:52;;;;;;;8.95;4.78;;;33.60;67.40;;;;;;5045473;28;20215;-76
2021/07/31 09:58:20;;;;;;;12.77;4.22;;;33.60;66.80;;;;;;5042054;28;20677;-76
2021/07/31 10:00:54;;;;;;;12.60;4.10;;;33.60;67.00;;;;;;5044525;28;20224;-77
2021/07/31 10:03:21;;;;;;;11.88;4.38;;;33.80;67.60;;;;;;5063333;28;20212;-77
2021/07/31 10:05:48;;;;;;;7.85;4.30;;;33.80;67.60;;;;;;5027846;28;20180;-76
2021/07/31 10:08:16;;;;;;;8.05;4.47;;;33.90;67.00;;;;;;5045653;28;20209;-76
2021/07/31 10:10:45;;;;;;;8.25;3.95;;;33.90;66.30;;;;;;5060480;28;20183;-77
2021/07/31 10:13:12;;;;;;;11.02;3.92;;;34.10;66.20;;;;;;5044017;28;20272;-76
2021/07/31 10:15:40;;;;;;;10.23;4.22;;;34.20;66.60;;;;;;5027353;28;20274;-77
2021/07/31 10:18:11;;;;;;;11.10;5.32;;;34.50;66.20;;;;;;5028926;28;20233;-76
2021/07/31 10:20:40;;;;;;;8.52;3.92;;;34.60;67.70;;;;;;5046966;28;20215;-76
2021/07/31 10:23:08;;;;;;;7.68;4.20;;;34.50;69.30;;;;;;5028220;28;20204;-77
2021/07/31 10:25:34;;;;;;;10.93;3.80;;;34.50;70.20;;;;;;5029929;28;20233;-76
2021/07/31 10:28:28;;;;;;;9.15;3.85;;;34.70;71.30;;;;;;5047708;28;20180;-77
2021/07/31 10:31:40;;;;;;;5.63;3.80;;;36.70;70.10;;;;;;5044080;28;20325;-77
2021/07/31 10:34:07;;;;;;;9.10;4.10;;;37.30;68.80;;;;;;5043961;28;20192;-76
2021/07/31 10:36:39;;;;;;;15.60;4.35;;;37.70;68.00;;;;;;5040620;28;20187;-77
2021/07/31 10:39:27;;;;;;;7.18;3.70;;;36.80;68.70;;;;;;5027495;28;20278;-77
2021/07/31 10:42:03;;;;;;;7.63;4.13;;;36.20;70.80;;;;;;5042035;28;20187;-77
2021/07/31 10:44:31;;;;;;;9.55;4.43;;;35.70;70.70;;;;;;5043852;28;20203;-77
2021/07/31 10:47:22;;;;;;;8.35;3.55;;;35.40;69.90;;;;;;5028249;28;20238;-76
2021/07/31 10:49:50;;;;;;;11.90;3.95;;;35.10;71.20;;;;;;5027213;28;20195;-77
2021/07/31 10:52:56;;;;;;;9.25;4.20;;;35.30;72.10;;;;;;5042158;28;20191;-76
2021/07/31 10:55:24;;;;;;;8.13;3.97;;;35.10;72.40;;;;;;5044680;28;20183;-77
2021/07/31 10:57:54;;;;;;;7.30;3.70;;;35.20;72.70;;;;;;5045311;28;20203;-78
2021/07/31 11:00:40;;;;;;;12.52;4.30;;;35.00;74.50;;;;;;5029423;28;20182;-76
2021/07/31 11:03:20;;;;;;;11.02;3.47;;;34.90;74.60;;;;;;5044580;28;20203;-76
2021/07/31 11:05:54;;;;;;;14.10;3.72;;;35.10;75.80;;;;;;5025876;28;20230;-76
2021/07/31 11:08:27;;;;;;;10.30;3.60;;;35.00;73.50;;;;;;5041590;28;20359;-76
2021/07/31 11:10:55;;;;;;;6.18;3.50;;;34.90;74.70;;;;;;5047707;28;20245;-77
2021/07/31 11:13:22;;;;;;;8.18;3.72;;;35.00;75.00;;;;;;5042593;28;20950;-76
2021/07/31 11:16:04;;;;;;;10.15;3.72;;;35.10;75.50;;;;;;5043934;28;20234;-76
2021/07/31 11:18:39;;;;;;;6.43;3.67;;;35.10;76.60;;;;;;5023655;28;20298;-76
2021/07/31 11:21:20;;;;;;;5.82;3.38;;;35.20;77.30;;;;;;5040296;28;20555;-76
2021/07/31 11:23:53;;;;;;;8.88;3.80;;;34.90;76.50;;;;;;5027720;28;20234;-76
2021/07/31 11:26:41;;;;;;;9.68;3.35;;;34.90;78.20;;;;;;5046026;28;20277;-77
2021/07/31 11:29:34;;;;;;;16.95;4.00;;;35.00;78.70;;;;;;5047539;28;20248;-77
2021/07/31 11:32:14;;;;;;;7.65;3.70;;;34.90;79.20;;;;;;5043181;28;20199;-77
2021/07/31 11:34:46;;;;;;;6.82;3.53;;;34.90;80.10;;;;;;5060200;28;20183;-76
2021/07/31 11:37:16;;;;;;;6.47;3.55;;;34.70;79.60;;;;;;5025355;28;20632;-76
2021/07/31 11:39:44;;;;;;;8.88;3.63;;;34.70;80.20;;;;;;5030715;28;20191;-76
2021/07/31 11:42:21;;;;;;;9.80;3.75;;;34.70;79.20;;;;;;5043749;28;20729;-76
2021/07/31 11:44:48;;;;;;;10.43;3.63;;;34.70;78.10;;;;;;5041691;28;20281;-77
2021/07/31 11:47:15;;;;;;;7.95;3.60;;;34.80;77.70;;;;;;5041693;28;20316;-76
2021/07/31 11:49:45;;;;;;;7.63;3.45;;;34.80;77.60;;;;;;5061386;28;20262;-76
2021/07/31 11:52:12;;;;;;;7.65;3.30;;;34.80;77.00;;;;;;5026890;28;20529;-76
2021/07/31 11:54:43;;;;;;;9.82;3.63;;;34.80;77.10;;;;;;5042188;28;20191;-76
2021/07/31 11:57:14;;;;;;;10.43;3.60;;;34.80;75.60;;;;;;5037297;28;20211;-76
2021/07/31 11:59:42;;;;;;;6.32;3.47;;;34.50;76.80;;;;;;5050394;28;20237;-76
2021/07/31 12:02:08;;;;;;;7.65;3.15;;;34.60;76.50;;;;;;5026408;28;20195;-76
2021/07/31 12:04:53;;;;;;;9.13;3.60;;;34.80;77.90;;;;;;5040774;28;20762;-76
2021/07/31 12:07:24;;;;;;;10.80;3.75;;;34.90;79.50;;;;;;5041423;28;20785;-76
2021/07/31 12:10:10;;;;;;;5.63;3.28;;;34.90;79.00;;;;;;5046198;28;20278;-74
2021/07/31 12:12:42;;;;;;;10.10;3.60;;;34.80;79.00;;;;;;5039670;28;20218;-76
2021/07/31 12:15:10;;;;;;;10.07;3.70;;;34.80;78.10;;;;;;5043389;28;20234;-75
2021/07/31 12:17:42;;;;;;;6.53;3.50;;;34.80;78.30;;;;;;5040600;28;20270;-76
2021/07/31 12:20:09;;;;;;;8.60;3.72;;;34.70;80.00;;;;;;5036399;28;20191;-75
2021/07/31 12:22:52;;;;;;;9.60;3.60;;;34.70;81.30;;;;;;5061652;28;20183;-76
2021/07/31 12:25:20;;;;;;;14.63;4.22;;;34.70;82.50;;;;;;5023269;28;20298;-73
2021/07/31 12:28:00;;;;;;;10.05;3.50;;;34.60;82.90;;;;;;5041205;28;20183;-74
2021/07/31 12:30:40;;;;;;;7.63;3.63;;;34.50;83.40;;;;;;5056192;28;20280;-73
2021/07/31 12:33:20;;;;;;;9.68;3.55;;;34.60;84.00;;;;;;5027394;28;20191;-74
2021/07/31 12:35:59;;;;;;;5.30;3.47;;;34.60;83.70;;;;;;5044042;28;20194;-73
2021/07/31 12:38:28;;;;;;;6.75;3.60;;;34.50;85.30;;;;;;5042267;28;20635;-73
2021/07/31 12:41:01;;;;;;;6.22;3.83;;;34.50;84.60;;;;;;5043338;28;20187;-74
2021/07/31 12:43:53;;;;;;;20.27;4.15;;;34.30;84.50;;;;;;5040442;28;20216;-74
2021/07/31 12:46:22;;;;;;;8.27;3.85;;;34.30;85.10;;;;;;5042916;28;20227;-74
2021/07/31 12:48:50;;;;;;;9.07;3.85;;;34.20;85.90;;;;;;5044703;28;20179;-73
2021/07/31 12:51:18;;;;;;;8.02;3.90;;;34.20;85.80;;;;;;5044830;28;20303;-74
2021/07/31 12:53:45;;;;;;;7.65;3.75;;;34.20;85.40;;;;;;5042394;28;20180;-74